Time;durP1;ratioP1;P1;durP2;ratioP2;P2;SDS_P1;SDS_P2;PMS_P1;PMS_P2;Temp;Humidity;BMP_temperature;BMP_pressure;BME280_temperature;BME280_humidity;BME280_pressure;Samples;Min_cycle;Max_cycle;Signal;HPM_P1;HPM_P2
2022/12/02 06:07:27;;;;;;;2.98;2.47;;;;;;;-4.00;100.00;100941.97;1845242;75;26394;-65
2022/12/02 06:09:54;;;;;;;3.92;2.33;;;;;;;-3.85;100.00;100935.23;1809012;77;21410;-69
2022/12/02 06:12:20;;;;;;;3.40;2.77;;;;;;;-3.69;100.00;100940.50;1809545;77;21547;-67
2022/12/02 06:14:53;;;;;;;2.27;2.00;;;;;;;-3.55;100.00;100943.16;1813799;78;21742;-68
2022/12/02 06:17:19;;;;;;;3.15;2.42;;;;;;;-3.41;100.00;100938.48;1805737;77;21738;-69
2022/12/02 06:19:52;;;;;;;2.90;2.10;;;;;;;-3.26;100.00;100940.71;1811284;77;22838;-66
2022/12/02 06:22:25;;;;;;;4.15;2.92;;;;;;;-3.12;100.00;100941.20;1810617;77;21629;-67
2022/12/02 06:24:59;;;;;;;3.83;2.55;;;;;;;-3.01;100.00;100944.58;1805790;77;21897;-65
2022/12/02 06:27:27;;;;;;;5.22;2.90;;;;;;;-2.91;100.00;100939.31;1814815;78;21624;-68
2022/12/02 06:29:59;;;;;;;3.87;3.02;;;;;;;-2.80;100.00;100945.69;1810661;78;21520;-66
2022/12/02 06:32:34;;;;;;;3.42;3.12;;;;;;;-2.69;100.00;100942.56;1813317;78;21494;-67
2022/12/02 06:35:01;;;;;;;3.58;3.00;;;;;;;-2.60;100.00;100942.47;1819115;77;21413;-66
2022/12/02 06:37:28;;;;;;;3.72;2.50;;;;;;;-2.50;100.00;100935.89;1764632;78;21870;-66
2022/12/02 06:39:58;;;;;;;2.40;2.12;;;;;;;-2.40;100.00;100934.47;1821100;78;21148;-65
2022/12/02 06:42:34;;;;;;;6.65;2.87;;;;;;;-2.26;100.00;100937.45;1804890;78;21689;-66
2022/12/02 06:45:08;;;;;;;3.40;2.42;;;;;;;-2.11;100.00;100937.94;1813338;77;21604;-66
2022/12/02 06:47:49;;;;;;;4.22;2.62;;;;;;;-2.03;100.00;100932.58;1811422;78;21457;-61
2022/12/02 06:50:37;;;;;;;3.67;2.80;;;;;;;-1.94;100.00;100933.27;1794043;77;21755;-62
2022/12/02 06:53:35;;;;;;;3.33;2.60;;;;;;;-1.86;100.00;100937.34;1804923;77;21809;-60
2022/12/02 06:56:28;;;;;;;5.45;3.05;;;;;;;-1.79;100.00;100929.83;1806436;78;21558;-59
2022/12/02 06:59:01;;;;;;;4.85;2.72;;;;;;;-1.68;100.00;100929.23;1806291;76;21537;-60
2022/12/02 07:01:42;;;;;;;5.45;3.17;;;;;;;-1.61;100.00;100929.44;1820802;77;21541;-62
2022/12/02 07:04:18;;;;;;;4.35;2.72;;;;;;;-1.52;100.00;100931.41;1818866;78;21729;-61
2022/12/02 07:06:47;;;;;;;5.22;3.10;;;;;;;-1.52;100.00;100931.83;1806665;77;21386;-61
2022/12/02 07:09:45;;;;;;;4.03;3.22;;;;;;;-1.48;100.00;100925.92;1785141;78;20965;-59
2022/12/02 07:12:38;;;;;;;7.40;2.60;;;;;;;-1.44;100.00;100924.73;1642120;84;21529;-62
2022/12/02 07:15:27;;;;;;;3.92;2.90;;;;;;;-1.32;100.00;100928.05;1652238;86;21604;-60
2022/12/02 07:17:56;;;;;;;7.72;3.22;;;;;;;-1.25;100.00;100927.80;1645558;84;21862;-59
2022/12/02 07:20:34;;;;;;;2.92;2.52;;;;;;;-1.17;100.00;100930.15;1661074;84;21411;-61
2022/12/02 07:23:14;;;;;;;4.67;3.00;;;;;;;-1.10;100.00;100926.03;1656815;84;21449;-60
2022/12/02 07:25:53;;;;;;;4.05;2.90;;;;;;;-1.03;100.00;100929.23;1652748;84;21545;-60
2022/12/02 07:28:40;;;;;;;4.08;3.20;;;;;;;-0.99;100.00;100925.88;1653604;84;21614;-59
2022/12/02 07:31:22;;;;;;;5.10;3.40;;;;;;;-0.94;100.00;100927.27;1653345;83;21813;-59
2022/12/02 07:33:49;;;;;;;6.33;3.25;;;;;;;-0.88;100.00;100923.14;1655990;84;21628;-58
2022/12/02 07:36:16;;;;;;;6.00;3.65;;;;;;;-0.83;100.00;100924.13;1654001;84;21668;-59
2022/12/02 07:38:43;;;;;;;5.40;3.85;;;;;;;-0.75;100.00;100923.42;1659519;84;21589;-60
2022/12/02 07:41:09;;;;;;;7.20;4.50;;;;;;;-0.72;100.00;100921.78;1640115;84;21441;-61
2022/12/02 07:43:37;;;;;;;4.92;3.52;;;;;;;-0.66;100.00;100921.05;1651373;84;21788;-61
2022/12/02 07:46:05;;;;;;;7.28;4.67;;;;;;;-0.65;100.00;100922.81;1652973;86;21521;-63
2022/12/02 07:48:31;;;;;;;5.60;4.40;;;;;;;-0.63;100.00;100921.14;1656251;84;21537;-60
2022/12/02 07:50:58;;;;;;;8.03;4.25;;;;;;;-0.62;100.00;100921.17;1666437;83;21925;-61
2022/12/02 07:53:25;;;;;;;5.45;3.85;;;;;;;-0.55;100.00;100925.19;1659533;83;21591;-60
2022/12/02 07:55:52;;;;;;;5.78;4.25;;;;;;;-0.51;100.00;100927.89;1653854;84;21966;-61
2022/12/02 07:58:18;;;;;;;6.27;3.93;;;;;;;-0.44;100.00;100932.33;1656878;84;21482;-60
2022/12/02 08:00:45;;;;;;;5.72;3.77;;;;;;;-0.39;100.00;100935.04;1660452;84;21573;-60
2022/12/02 08:03:11;;;;;;;5.67;3.33;;;;;;;-0.30;100.00;100933.95;1653352;85;21414;-59
2022/12/02 08:05:38;;;;;;;5.35;3.52;;;;;;;-0.27;100.00;100928.83;1631770;85;21493;-59
2022/12/02 08:08:05;;;;;;;4.12;3.30;;;;;;;-0.22;100.00;100931.11;1654590;84;21864;-60
2022/12/02 08:10:33;;;;;;;5.40;3.85;;;;;;;-0.17;100.00;100926.45;1655854;84;21526;-60
2022/12/02 08:13:00;;;;;;;5.25;3.77;;;;;;;-0.15;100.00;100926.95;1657768;84;21731;-60
2022/12/02 08:15:27;;;;;;;4.00;3.42;;;;;;;-0.11;100.00;100925.31;1652684;84;21513;-62
2022/12/02 08:17:54;;;;;;;5.28;4.12;;;;;;;-0.12;100.00;100925.70;1650981;84;21601;-61
2022/12/02 08:20:21;;;;;;;5.03;3.75;;;;;;;-0.08;100.00;100928.80;1657816;84;21789;-67
2022/12/02 08:22:47;;;;;;;8.45;3.95;;;;;;;-0.07;100.00;100927.12;1657737;84;21612;-61
2022/12/02 08:25:14;;;;;;;5.03;3.42;;;;;;;-0.06;100.00;100928.45;1659687;84;21489;-60
2022/12/02 08:27:41;;;;;;;5.70;3.40;;;;;;;-0.02;100.00;100921.59;1660004;84;21633;-61
2022/12/02 08:30:08;;;;;;;4.87;3.50;;;;;;;0.04;100.00;100923.04;1654825;84;21505;-60
2022/12/02 08:32:35;;;;;;;5.28;3.67;;;;;;;0.05;100.00;100922.61;1648293;83;21881;-62
2022/12/02 08:35:03;;;;;;;5.45;3.22;;;;;;;0.11;100.00;100923.59;1652693;84;21688;-61
2022/12/02 08:37:30;;;;;;;;;;;;;;;0.12;100.00;100920.17;1666381;84;21467;-60
2022/12/02 08:39:56;;;;;;;6.53;4.35;;;;;;;0.08;100.00;100922.25;1657624;84;20419;-61
2022/12/02 08:42:23;;;;;;;8.23;4.50;;;;;;;0.12;100.00;100918.02;1660657;83;21544;-60
2022/12/02 08:44:49;;;;;;;5.33;4.08;;;;;;;0.16;100.00;100914.64;1659821;83;21533;-62
2022/12/02 08:47:16;;;;;;;6.87;4.10;;;;;;;0.23;100.00;100924.67;1651253;84;21569;-62
2022/12/02 08:49:43;;;;;;;4.53;3.80;;;;;;;0.19;100.00;100917.31;1652513;84;21498;-61
2022/12/02 08:52:09;;;;;;;7.45;4.00;;;;;;;0.19;100.00;100918.17;1654804;84;21148;-68
2022/12/02 08:54:37;;;;;;;6.37;3.85;;;;;;;0.27;100.00;100914.87;1657768;84;21553;-63
2022/12/02 08:57:03;;;;;;;;;;;;;;;0.39;100.00;100915.95;1650352;84;21827;-62
2022/12/02 08:59:31;;;;;;;3.65;2.87;;;;;;;0.44;100.00;100916.48;1658438;84;20434;-59
2022/12/02 09:01:58;;;;;;;5.33;2.58;;;;;;;0.57;100.00;100914.14;1651785;84;21576;-61
2022/12/02 09:04:25;;;;;;;4.78;3.10;;;;;;;0.64;100.00;100908.66;1657023;84;21499;-58
2022/12/02 09:06:52;;;;;;;3.60;2.92;;;;;;;0.70;100.00;100910.48;1656594;84;21062;-60
2022/12/02 09:09:20;;;;;;;3.85;3.20;;;;;;;0.71;100.00;100914.80;1663758;84;21837;-62
2022/12/02 09:11:46;;;;;;;4.78;3.22;;;;;;;0.77;100.00;100910.63;1654279;84;21029;-61
2022/12/02 09:14:13;;;;;;;5.08;3.08;;;;;;;0.86;100.00;100906.44;1648685;84;21573;-61
2022/12/02 09:16:40;;;;;;;4.53;3.08;;;;;;;0.91;100.00;100906.96;1657873;84;21651;-59
2022/12/02 09:19:06;;;;;;;3.40;3.10;;;;;;;1.02;100.00;100904.95;1657178;84;21506;-58
2022/12/02 09:21:33;;;;;;;4.80;2.92;;;;;;;1.10;100.00;100905.55;1664048;84;21839;-59
2022/12/02 09:24:00;;;;;;;7.60;3.33;;;;;;;1.12;100.00;100904.28;1651315;84;21108;-58
2022/12/02 09:26:26;;;;;;;5.62;2.98;;;;;;;1.11;100.00;100904.70;1661862;84;21553;-60
2022/12/02 09:28:53;;;;;;;6.05;3.27;;;;;;;1.13;100.00;100900.42;1659626;84;21623;-60
2022/12/02 09:31:19;;;;;;;4.35;2.77;;;;;;;1.10;100.00;100898.20;1659430;83;21600;-60
2022/12/02 09:33:46;;;;;;;4.58;2.95;;;;;;;0.96;100.00;100900.55;1655809;84;21912;-59
2022/12/02 09:36:13;;;;;;;3.65;3.25;;;;;;;0.87;100.00;100906.47;1654225;83;21612;-60
2022/12/02 09:38:39;;;;;;;4.12;3.42;;;;;;;0.77;100.00;100905.44;1653131;85;21767;-59
2022/12/02 09:41:06;;;;;;;4.05;3.25;;;;;;;0.70;100.00;100904.02;1647825;84;21491;-62
2022/12/02 09:43:32;;;;;;;5.72;2.67;;;;;;;0.68;100.00;100910.86;1655729;84;21446;-61
2022/12/02 09:45:59;;;;;;;4.58;3.00;;;;;;;0.65;100.00;100908.23;1651488;83;22085;-59
2022/12/02 09:58:55;;;;;;;3.10;2.80;;;;;;;0.34;100.00;100905.06;1713723;81;21123;-60
2022/12/02 10:01:23;;;;;;;4.58;3.00;;;;;;;0.35;100.00;100902.51;1667017;84;21921;-61
2022/12/02 14:02:11;;;;;;;6.45;4.25;;;;;;;-2.00;100.00;100939.12;1754347;79;22995;-60
2022/12/02 14:04:38;;;;;;;11.30;4.28;;;;;;;-1.83;100.00;100946.44;1727556;80;21589;-60
2022/12/02 14:07:04;;;;;;;9.50;4.27;;;;;;;-1.71;100.00;100935.19;1729346;81;21580;-60
2022/12/02 14:09:45;;;;;;;7.30;4.15;;;;;;;-1.53;100.00;100943.83;1726040;81;21061;-61
2022/12/02 14:12:13;;;;;;;12.00;4.58;;;;;;;-1.41;100.00;100949.34;1649129;84;21464;-61
2022/12/02 14:14:40;;;;;;;8.10;4.75;;;;;;;-1.32;100.00;100947.82;1643288;84;21448;-60
2022/12/02 14:17:08;;;;;;;7.13;4.73;;;;;;;-1.23;100.00;100946.78;1650603;84;21623;-61
2022/12/02 14:19:34;;;;;;;5.45;4.42;;;;;;;-1.16;100.00;100947.40;1639900;85;21584;-58
2022/12/02 14:22:01;;;;;;;7.05;4.55;;;;;;;-1.06;100.00;100958.83;1653579;84;21615;-61
2022/12/02 14:24:27;;;;;;;8.30;4.97;;;;;;;-1.00;100.00;100956.39;1657350;83;21587;-59
2022/12/02 14:26:54;;;;;;;8.28;5.22;;;;;;;-0.96;100.00;100954.77;1650814;84;21619;-59
2022/12/02 14:29:20;;;;;;;7.75;4.67;;;;;;;-0.92;100.00;100963.94;1644876;85;21560;-68
2022/12/02 14:31:47;;;;;;;8.70;5.03;;;;;;;-0.87;100.00;100966.19;1654162;84;21842;-73
2022/12/02 14:34:13;;;;;;;5.45;4.25;;;;;;;-0.85;100.00;100963.65;1654325;84;21587;-68
2022/12/02 14:36:43;;;;;;;6.42;4.70;;;;;;;-0.85;100.00;100959.37;1657831;84;21564;-69
2022/12/02 14:39:10;;;;;;;7.28;5.10;;;;;;;-0.77;100.00;100965.13;1653070;84;21494;-69
2022/12/02 14:41:37;;;;;;;5.63;4.33;;;;;;;-0.76;100.00;100956.13;1652290;84;21080;-69
2022/12/02 14:44:04;;;;;;;8.40;4.78;;;;;;;-0.76;100.00;100956.13;1643691;84;21836;-68
2022/12/02 14:46:31;;;;;;;6.55;4.47;;;;;;;-0.75;100.00;100959.19;1650500;85;21590;-68
2022/12/02 14:48:58;;;;;;;9.80;4.90;;;;;;;-0.71;100.00;100956.26;1646431;84;21975;-70
2022/12/02 14:51:24;;;;;;;7.73;5.30;;;;;;;-0.70;100.00;100960.14;1641975;84;21554;-69
2022/12/02 14:53:51;;;;;;;6.53;4.67;;;;;;;-1.01;100.00;100906.47;1651267;85;21660;-70
2022/12/02 14:56:21;;;;;;;8.28;4.75;;;;;;;-0.69;100.00;100959.75;1653902;83;21884;-70
2022/12/02 14:58:46;;;;;;;5.45;4.65;;;;;;;-0.67;100.00;100964.11;1660115;84;21005;-70
2022/12/02 15:01:12;;;;;;;9.20;4.70;;;;;;;-0.65;100.00;100961.13;1656394;84;21547;-71
2022/12/02 15:03:39;;;;;;;5.67;4.45;;;;;;;-0.73;100.00;100963.10;1647220;85;21619;-71
2022/12/02 15:06:06;;;;;;;9.90;5.08;;;;;;;-0.73;100.00;100965.25;1655053;84;21570;-71
2022/12/02 15:08:34;;;;;;;6.42;4.95;;;;;;;-0.70;100.00;100964.02;1656049;83;21619;-73
2022/12/02 15:11:01;;;;;;;4.92;4.35;;;;;;;-0.69;100.00;100970.08;1653391;84;21504;-70
2022/12/02 15:13:28;;;;;;;7.03;4.17;;;;;;;-0.69;100.00;100967.07;1647309;84;27118;-70
2022/12/02 15:15:55;;;;;;;5.75;4.62;;;;;;;-0.67;100.00;100965.83;1657503;83;21552;-70
2022/12/02 15:18:21;;;;;;;5.35;4.67;;;;;;;-0.65;100.00;100966.73;1653730;84;21004;-70
2022/12/02 15:20:48;;;;;;;7.45;4.53;;;;;;;-0.61;100.00;100968.12;1648993;84;21751;-72
2022/12/02 15:23:15;;;;;;;6.93;4.73;;;;;;;-0.59;100.00;100965.58;1652296;84;21016;-71
2022/12/02 15:25:41;;;;;;;6.92;4.78;;;;;;;-0.59;100.00;100967.73;1644011;84;21463;-73
2022/12/02 15:28:08;;;;;;;6.47;4.90;;;;;;;-0.58;100.00;100960.88;1651164;84;21583;-73
2022/12/02 15:30:35;;;;;;;8.33;5.33;;;;;;;-0.57;100.00;100961.74;1645733;85;21611;-70
2022/12/02 15:33:02;;;;;;;5.60;4.42;;;;;;;-0.56;100.00;100956.62;1629340;85;21987;-69
2022/12/02 15:35:28;;;;;;;7.95;5.05;;;;;;;-0.59;100.00;100961.27;1654662;84;21823;-70
2022/12/02 15:37:55;;;;;;;6.95;4.83;;;;;;;-0.75;100.00;100931.16;1647519;84;21604;-70
2022/12/02 15:40:22;;;;;;;6.42;5.00;;;;;;;-0.57;100.00;100964.33;1637870;85;21529;-70
2022/12/02 15:42:49;;;;;;;6.87;4.97;;;;;;;-0.57;100.00;100958.73;1646110;84;21535;-70
2022/12/02 15:45:16;;;;;;;8.88;5.45;;;;;;;-0.56;100.00;100966.09;1650501;84;21972;-69
2022/12/02 15:47:44;;;;;;;6.00;5.25;;;;;;;-0.55;100.00;100966.52;1646317;84;21584;-69
2022/12/02 15:50:10;;;;;;;5.85;4.55;;;;;;;-0.54;100.00;100975.61;1649387;84;21513;-70
2022/12/02 15:52:37;;;;;;;8.20;5.60;;;;;;;-0.54;100.00;100972.16;1648550;84;21587;-70
2022/12/02 15:55:05;;;;;;;7.08;4.80;;;;;;;-0.54;100.00;100970.88;1648336;84;21835;-68
2022/12/02 15:57:32;;;;;;;6.78;5.12;;;;;;;-0.51;100.00;100969.23;1652545;84;21807;-70
2022/12/02 15:59:58;;;;;;;6.17;5.15;;;;;;;-0.50;100.00;100965.80;1647208;85;21697;-70
2022/12/02 16:02:25;;;;;;;7.85;5.03;;;;;;;-0.49;100.00;100968.84;1648163;84;21580;-69
2022/12/02 16:04:54;;;;;;;7.30;4.90;;;;;;;-0.52;100.00;100971.34;1661921;84;21538;-70
2022/12/02 16:07:21;;;;;;;9.33;4.92;;;;;;;-0.52;100.00;100971.78;1645701;85;21540;-69
2022/12/02 16:09:48;;;;;;;9.15;5.33;;;;;;;-0.53;100.00;100971.30;1599592;87;22244;-70
2022/12/02 16:12:15;;;;;;;9.27;5.50;;;;;;;-0.55;100.00;100969.11;1608122;87;21035;-69
2022/12/02 16:14:43;;;;;;;6.78;4.97;;;;;;;-0.55;100.00;100970.40;1590039;87;21046;-70
2022/12/02 16:17:09;;;;;;;7.70;5.10;;;;;;;-0.54;100.00;100978.62;1605893;86;21024;-70
2022/12/02 16:19:36;;;;;;;7.45;5.08;;;;;;;-0.55;100.00;100966.52;1617358;86;21619;-69
2022/12/02 16:22:03;;;;;;;7.87;4.75;;;;;;;-0.57;100.00;100972.94;1608208;86;21799;-69
2022/12/02 16:24:29;;;;;;;6.45;5.20;;;;;;;-0.56;100.00;100967.38;1610160;86;21100;-69
2022/12/02 16:26:56;;;;;;;6.12;5.05;;;;;;;-0.57;100.00;100971.65;1613443;86;21638;-70
2022/12/02 16:29:23;;;;;;;7.23;5.50;;;;;;;-0.54;100.00;100974.31;1602058;86;21675;-69
2022/12/02 16:31:50;;;;;;;9.70;5.78;;;;;;;-0.55;100.00;100966.09;1609694;86;21488;-69
2022/12/02 16:34:16;;;;;;;8.18;5.20;;;;;;;-0.56;100.00;100968.24;1601559;86;21844;-69
2022/12/02 16:36:43;;;;;;;7.95;5.20;;;;;;;-0.57;100.00;100972.94;1616704;86;21590;-70
2022/12/02 16:39:10;;;;;;;7.65;5.85;;;;;;;-0.57;100.00;100967.77;1612037;86;21605;-70
2022/12/02 16:41:37;;;;;;;7.50;5.67;;;;;;;-0.57;100.00;100974.66;1610087;86;21540;-69
2022/12/02 16:44:04;;;;;;;6.15;4.90;;;;;;;-0.57;100.00;100972.08;1613329;86;21671;-68
2022/12/02 16:46:35;;;;;;;9.60;5.83;;;;;;;-0.59;100.00;100968.16;1607925;86;21781;-70
2022/12/02 16:49:04;;;;;;;9.38;6.15;;;;;;;-0.61;100.00;100970.70;1613336;86;21556;-70
2022/12/02 16:51:31;;;;;;;7.47;5.37;;;;;;;-0.60;100.00;100971.59;1609928;86;21594;-70
2022/12/02 16:53:58;;;;;;;8.35;5.45;;;;;;;-0.60;100.00;100974.18;1602208;87;21575;-70
2022/12/02 16:56:25;;;;;;;8.70;4.90;;;;;;;-0.62;100.00;100978.02;1612747;86;21587;-69
2022/12/02 16:58:52;;;;;;;7.53;4.85;;;;;;;-0.62;100.00;100978.02;1604580;86;21841;-70
2022/12/02 17:01:18;;;;;;;6.62;5.00;;;;;;;-0.61;100.00;100986.20;1609873;86;21497;-70
2022/12/02 17:03:45;;;;;;;7.45;5.53;;;;;;;-0.60;100.00;100983.22;1606251;86;21604;-69
2022/12/02 17:06:12;;;;;;;7.50;5.35;;;;;;;-0.63;100.00;100989.59;1602665;86;21643;-69
2022/12/02 17:08:38;;;;;;;7.03;5.60;;;;;;;-0.62;100.00;100987.48;1624178;86;21583;-69
2022/12/02 17:11:05;;;;;;;8.48;5.87;;;;;;;-0.61;100.00;100985.34;1596855;87;21941;-69
2022/12/02 17:13:32;;;;;;;6.28;5.12;;;;;;;-0.60;100.00;100986.67;1605420;86;21501;-68
2022/12/02 17:15:59;;;;;;;8.18;5.40;;;;;;;-0.60;100.00;100990.97;1609130;86;21579;-69
2022/12/02 17:18:26;;;;;;;8.68;5.03;;;;;;;-0.61;100.00;100987.49;1606305;86;21582;-69
2022/12/02 17:20:53;;;;;;;8.00;5.90;;;;;;;-0.61;100.00;100995.67;1612044;86;21644;-70
2022/12/02 17:23:20;;;;;;;8.58;6.35;;;;;;;-0.59;100.00;100994.00;1596414;86;22278;-69
2022/12/02 17:25:47;;;;;;;16.00;6.47;;;;;;;-0.58;100.00;100989.30;1597780;86;21080;-70
2022/12/02 17:28:13;;;;;;;7.97;5.53;;;;;;;-0.58;100.00;100989.30;1597876;86;21567;-69
2022/12/02 17:30:40;;;;;;;8.50;5.70;;;;;;;-0.58;100.00;100989.30;1606845;87;21619;-70
2022/12/02 17:33:07;;;;;;;7.77;5.63;;;;;;;-0.56;100.00;100986.33;1605654;86;21171;-70
2022/12/02 17:35:34;;;;;;;8.23;5.22;;;;;;;-0.56;100.00;100982.87;1603213;86;21900;-70
2022/12/02 17:38:00;;;;;;;6.78;5.00;;;;;;;-0.54;100.00;100984.66;1602730;86;21617;-69
2022/12/02 17:40:27;;;;;;;11.85;6.40;;;;;;;-0.53;100.00;100988.97;1607719;87;21549;-69
2022/12/02 17:42:54;;;;;;;9.25;5.80;;;;;;;-0.54;100.00;100990.25;1579918;88;21618;-69
2022/12/02 17:45:20;;;;;;;8.15;5.62;;;;;;;-0.54;100.00;100992.41;1601024;86;21510;-68
2022/12/02 17:47:47;;;;;;;9.40;5.35;;;;;;;-0.54;100.00;100991.11;1611662;86;21604;-69
2022/12/02 17:50:14;;;;;;;8.38;5.97;;;;;;;-0.52;100.00;100995.89;1617271;86;21679;-67
2022/12/02 17:52:42;;;;;;;8.93;5.85;;;;;;;-0.50;100.00;100994.64;1612512;86;21924;-67
2022/12/02 17:55:08;;;;;;;8.00;6.03;;;;;;;-0.49;100.00;100989.52;1610447;86;21187;-68
2022/12/02 17:57:35;;;;;;;8.40;6.20;;;;;;;-0.49;100.00;100988.23;1610007;86;21529;-69
2022/12/02 18:00:03;;;;;;;9.10;5.92;;;;;;;-0.46;100.00;100992.58;1607277;87;21590;-69
2022/12/02 18:02:31;;;;;;;10.45;6.37;;;;;;;-0.47;100.00;100986.55;1602203;87;21568;-70
